Time;durP1;ratioP1;P1;durP2;ratioP2;P2;SDS_P1;SDS_P2;PMS_P1;PMS_P2;Temp;Humidity;BMP_temperature;BMP_pressure;BME280_temperature;BME280_humidity;BME280_pressure;Samples;Min_cycle;Max_cycle;Signal;HPM_P1;HPM_P2
2024/03/24 00:01:08;;;;;;;3.33;2.00;;;2.80;99.90;;;;;;5025176;28;20033;-84
2024/03/24 00:03:35;;;;;;;4.93;2.80;;;2.80;99.90;;;;;;5032709;28;20045;-88
2024/03/24 00:06:01;;;;;;;2.97;1.63;;;2.80;99.90;;;;;;4998878;28;20369;-84
2024/03/24 00:08:26;;;;;;;5.13;2.42;;;2.80;99.90;;;;;;5014104;28;20033;-84
2024/03/24 00:10:52;;;;;;;7.65;1.92;;;2.70;99.90;;;;;;5005810;28;20496;-83
2024/03/24 00:13:17;;;;;;;3.67;2.25;;;2.70;99.90;;;;;;4998488;28;20029;-83
2024/03/24 00:15:43;;;;;;;5.28;2.75;;;2.70;99.90;;;;;;5013969;28;20032;-84
2024/03/24 00:18:09;;;;;;;4.72;2.15;;;2.70;99.90;;;;;;4993221;28;20524;-84
2024/03/24 00:20:36;;;;;;;4.35;2.13;;;2.70;99.90;;;;;;4994528;28;20048;-82
2024/03/24 00:23:02;;;;;;;7.65;2.17;;;2.70;99.90;;;;;;5011136;28;20032;-84
2024/03/24 00:25:27;;;;;;;3.00;2.10;;;2.70;99.90;;;;;;4986214;28;21005;-85
2024/03/24 00:27:53;;;;;;;7.50;2.30;;;2.70;99.90;;;;;;5017230;28;20025;-85
2024/03/24 00:30:18;;;;;;;7.70;2.33;;;2.60;99.90;;;;;;4991132;28;20104;-85
2024/03/24 00:32:44;;;;;;;6.13;2.22;;;2.60;99.90;;;;;;4991350;28;20061;-84
2024/03/24 00:35:10;;;;;;;6.95;2.85;;;2.60;99.90;;;;;;5016001;28;20057;-85
2024/03/24 00:37:36;;;;;;;7.28;2.95;;;2.60;99.90;;;;;;5000031;28;20083;-84
2024/03/24 00:40:03;;;;;;;7.97;2.50;;;2.60;99.90;;;;;;5005981;28;20485;-86
2024/03/24 00:42:29;;;;;;;4.18;2.22;;;2.60;99.90;;;;;;4998552;28;20021;-85
2024/03/24 00:44:55;;;;;;;5.63;2.45;;;2.60;99.90;;;;;;4992047;28;20044;-85
2024/03/24 00:47:20;;;;;;;3.97;2.25;;;2.60;99.90;;;;;;5013272;28;20030;-84
2024/03/24 00:49:46;;;;;;;2.75;2.13;;;2.60;99.90;;;;;;4994193;28;20032;-85
2024/03/24 00:52:11;;;;;;;4.80;2.75;;;2.60;99.90;;;;;;4996792;28;20026;-84
2024/03/24 00:54:40;;;;;;;3.25;2.60;;;2.60;99.90;;;;;;5018502;28;20505;-84
2024/03/24 00:57:06;;;;;;;7.15;2.65;;;2.60;99.90;;;;;;4988381;28;20076;-84
2024/03/24 00:59:32;;;;;;;4.03;2.10;;;2.60;99.90;;;;;;5009057;28;20489;-85
2024/03/24 01:01:57;;;;;;;5.63;2.75;;;2.60;99.90;;;;;;5002335;28;20070;-85
2024/03/24 01:04:23;;;;;;;2.95;2.47;;;2.60;99.90;;;;;;4989840;28;20824;-85
2024/03/24 01:06:49;;;;;;;3.67;2.42;;;2.60;99.90;;;;;;5013944;28;20025;-85
2024/03/24 01:09:20;;;;;;;7.68;2.83;;;2.60;99.90;;;;;;4994105;28;20022;-85
2024/03/24 01:11:46;;;;;;;5.70;2.17;;;2.60;99.90;;;;;;4992794;28;20377;-85
2024/03/24 01:14:13;;;;;;;3.95;2.40;;;2.70;99.90;;;;;;5014709;28;20056;-84
2024/03/24 01:16:38;;;;;;;4.03;2.17;;;2.70;99.90;;;;;;5003958;28;20021;-85
2024/03/24 01:19:04;;;;;;;5.38;2.70;;;2.70;99.90;;;;;;4998737;28;20748;-83
2024/03/24 01:21:30;;;;;;;5.90;3.10;;;2.70;99.90;;;;;;4999670;28;20021;-86
2024/03/24 01:23:56;;;;;;;3.33;2.00;;;2.70;99.90;;;;;;5001338;28;20762;-85
2024/03/24 01:26:22;;;;;;;6.85;3.05;;;2.70;99.90;;;;;;5013120;28;20163;-84
2024/03/24 01:28:48;;;;;;;7.32;3.00;;;2.70;99.90;;;;;;4999059;28;20481;-84
2024/03/24 01:31:44;;;;;;;5.20;3.08;;;2.80;99.90;;;;;;4998965;28;20032;-84
2024/03/24 01:34:10;;;;;;;4.22;2.58;;;2.80;99.90;;;;;;4993978;28;20164;-84
2024/03/24 01:36:36;;;;;;;5.35;3.05;;;2.80;99.90;;;;;;5009598;28;20055;-85
2024/03/24 01:39:02;;;;;;;5.97;3.35;;;2.80;99.90;;;;;;4996287;28;20063;-84
2024/03/24 01:41:31;;;;;;;5.15;3.20;;;2.80;99.90;;;;;;5007015;28;20037;-84
2024/03/24 01:43:57;;;;;;;6.03;2.90;;;2.80;99.90;;;;;;5001859;28;20037;-85
2024/03/24 01:46:30;;;;;;;3.72;2.78;;;2.80;99.90;;;;;;4998022;28;21139;-84
2024/03/24 01:48:56;;;;;;;6.35;2.63;;;2.80;99.90;;;;;;5022923;28;20029;-84
2024/03/24 01:51:41;;;;;;;4.70;3.00;;;2.80;99.90;;;;;;4984508;28;20071;-85
2024/03/24 01:54:08;;;;;;;4.20;3.33;;;2.80;99.90;;;;;;4967682;28;20097;-85
2024/03/24 01:56:44;;;;;;;4.68;2.70;;;2.70;99.90;;;;;;5001238;28;20454;-84
2024/03/24 01:59:10;;;;;;;3.63;3.15;;;2.80;99.90;;;;;;5011883;28;20029;-85
2024/03/24 02:01:36;;;;;;;6.20;3.20;;;2.80;99.90;;;;;;4997508;28;20540;-85
2024/03/24 02:04:14;;;;;;;7.68;3.40;;;2.80;99.90;;;;;;5007142;28;20030;-84
2024/03/24 02:06:40;;;;;;;7.32;3.35;;;2.80;99.90;;;;;;5017176;28;20052;-86
2024/03/24 02:09:06;;;;;;;5.72;3.55;;;2.80;99.90;;;;;;4996418;28;20512;-86
2024/03/24 02:11:32;;;;;;;4.30;3.85;;;2.90;99.90;;;;;;5006719;28;20022;-85
2024/03/24 02:14:02;;;;;;;6.75;3.65;;;2.90;99.90;;;;;;5007338;28;20025;-86
2024/03/24 02:16:28;;;;;;;8.00;3.70;;;2.90;99.90;;;;;;4991643;28;21632;-86
2024/03/24 02:18:54;;;;;;;6.68;3.85;;;2.90;99.90;;;;;;5018770;28;20030;-85
2024/03/24 02:21:20;;;;;;;4.93;3.25;;;2.90;99.90;;;;;;4998105;28;20043;-86
2024/03/24 02:23:48;;;;;;;5.35;3.67;;;2.90;99.90;;;;;;4994160;28;20469;-86
2024/03/24 02:26:16;;;;;;;6.25;4.00;;;2.90;99.90;;;;;;5011803;28;20029;-84
2024/03/24 02:28:43;;;;;;;5.45;3.90;;;2.90;99.90;;;;;;4998196;28;20047;-86
2024/03/24 02:31:14;;;;;;;7.40;4.80;;;2.90;99.90;;;;;;4994690;28;20032;-83
2024/03/24 02:33:40;;;;;;;11.82;4.95;;;2.90;99.90;;;;;;5017589;28;20044;-86
2024/03/24 02:36:19;;;;;;;7.65;4.30;;;2.90;99.90;;;;;;4993977;28;20017;-87
2024/03/24 02:38:44;;;;;;;7.38;3.83;;;2.90;99.90;;;;;;4991865;28;20022;-86
2024/03/24 02:41:11;;;;;;;6.70;3.78;;;2.90;99.90;;;;;;5013841;28;20032;-87
2024/03/24 02:43:36;;;;;;;8.25;4.45;;;2.90;99.90;;;;;;4992345;28;20017;-85
2024/03/24 02:48:57;;;;;;;6.43;4.45;;;3.00;99.90;;;;;;5016504;28;20048;-87
2024/03/24 02:51:23;;;;;;;6.30;3.90;;;3.10;99.90;;;;;;5012915;28;20017;-87
2024/03/24 02:53:49;;;;;;;7.28;5.13;;;3.10;99.90;;;;;;4998741;28;20040;-86
2024/03/24 02:56:20;;;;;;;8.30;4.38;;;3.10;99.90;;;;;;5012593;28;20033;-87
2024/03/24 02:58:45;;;;;;;7.53;4.57;;;3.10;99.90;;;;;;4986852;28;20029;-86
2024/03/24 03:01:14;;;;;;;7.55;4.18;;;3.10;99.90;;;;;;4999295;28;20393;-86
2024/03/24 03:03:44;;;;;;;8.23;4.75;;;3.10;99.90;;;;;;5008266;28;20022;-86
2024/03/24 03:06:10;;;;;;;7.97;4.68;;;3.10;99.90;;;;;;4998195;28;20070;-86
2024/03/24 03:08:36;;;;;;;5.78;4.50;;;3.20;99.90;;;;;;5001124;28;20021;-83
2024/03/24 03:11:01;;;;;;;6.45;4.63;;;3.20;99.90;;;;;;5011173;28;20021;-85
2024/03/24 03:13:27;;;;;;;10.68;5.18;;;3.20;99.90;;;;;;4998847;28;20034;-84
2024/03/24 03:15:53;;;;;;;9.77;5.00;;;3.20;99.90;;;;;;5059828;22;20040;-49
2024/03/24 03:18:20;;;;;;;9.05;4.90;;;3.20;99.90;;;;;;4886959;28;20126;-50
2024/03/24 03:20:46;;;;;;;10.10;5.18;;;3.20;99.90;;;;;;4909031;28;20485;-50
2024/03/24 03:23:12;;;;;;;10.02;5.65;;;3.20;99.90;;;;;;4964401;28;20030;-50
2024/03/24 03:25:38;;;;;;;8.95;5.40;;;3.20;99.90;;;;;;4888108;28;20068;-53
2024/03/24 03:28:15;;;;;;;9.85;5.28;;;3.30;99.90;;;;;;4968127;28;20060;-60
2024/03/24 03:30:42;;;;;;;7.82;5.20;;;3.20;99.90;;;;;;4983074;28;20445;-55
2024/03/24 03:33:08;;;;;;;10.82;5.85;;;3.20;99.90;;;;;;4890586;28;20021;-52
2024/03/24 03:35:44;;;;;;;7.68;5.00;;;3.20;99.90;;;;;;4931207;28;20072;-59
2024/03/24 03:38:13;;;;;;;9.13;4.22;;;3.20;99.90;;;;;;5014106;28;20413;-49
2024/03/24 03:40:39;;;;;;;8.00;4.47;;;3.20;99.90;;;;;;5014782;28;20666;-50
2024/03/24 03:43:05;;;;;;;9.30;4.90;;;3.30;99.90;;;;;;5018287;28;20033;-57
2024/03/24 03:45:31;;;;;;;7.68;5.10;;;3.30;99.90;;;;;;5015469;28;20386;-51
2024/03/24 03:47:57;;;;;;;11.40;5.03;;;3.30;99.90;;;;;;5016685;28;20048;-48
2024/03/24 03:50:23;;;;;;;7.30;4.78;;;3.40;99.90;;;;;;5014450;28;20030;-49
2024/03/24 03:52:49;;;;;;;6.55;4.85;;;3.40;99.90;;;;;;5003291;28;20115;-50
2024/03/24 03:55:15;;;;;;;6.25;4.80;;;3.40;99.90;;;;;;5008760;28;20053;-52
2024/03/24 03:57:42;;;;;;;10.80;5.45;;;3.50;99.90;;;;;;5003106;28;20501;-50
2024/03/24 04:00:11;;;;;;;8.70;4.88;;;3.50;99.90;;;;;;4988852;28;20033;-52
2024/03/24 04:02:47;;;;;;;7.88;5.50;;;3.50;99.90;;;;;;4984387;28;20417;-49
2024/03/24 04:05:13;;;;;;;6.32;4.80;;;3.60;99.90;;;;;;4954302;28;20494;-48
2024/03/24 04:07:40;;;;;;;9.38;5.38;;;3.60;99.90;;;;;;5012633;28;20140;-49
2024/03/24 04:10:06;;;;;;;7.32;5.07;;;3.60;99.90;;;;;;4998578;28;20530;-49
2024/03/24 04:12:33;;;;;;;7.07;5.22;;;3.60;99.90;;;;;;4997225;28;20026;-60
2024/03/24 04:14:59;;;;;;;8.98;5.97;;;3.60;99.90;;;;;;5009486;28;20021;-51
2024/03/24 04:17:26;;;;;;;6.75;5.90;;;3.60;99.90;;;;;;4993880;28;20060;-51
2024/03/24 04:19:52;;;;;;;7.95;5.93;;;3.70;99.90;;;;;;5010036;28;20026;-49
2024/03/24 04:22:18;;;;;;;10.52;6.43;;;3.70;99.90;;;;;;4986752;28;20042;-52
2024/03/24 04:24:46;;;;;;;8.75;6.65;;;3.80;99.90;;;;;;4995675;28;20029;-53
2024/03/24 04:27:12;;;;;;;9.10;6.15;;;3.70;99.90;;;;;;5002638;28;20040;-49
2024/03/24 04:29:38;;;;;;;8.73;6.43;;;3.70;99.90;;;;;;4987943;28;20521;-52
2024/03/24 04:32:04;;;;;;;9.65;6.75;;;3.70;99.90;;;;;;4968075;28;20030;-54
2024/03/24 04:34:30;;;;;;;10.75;7.18;;;3.70;99.90;;;;;;4999187;28;20037;-49
2024/03/24 04:37:00;;;;;;;9.15;6.75;;;3.80;99.90;;;;;;4978989;28;20095;-49
2024/03/24 04:39:26;;;;;;;11.43;7.88;;;3.80;99.90;;;;;;5004867;28;20033;-52
2024/03/24 04:41:52;;;;;;;8.77;7.32;;;3.80;99.90;;;;;;4965771;28;20041;-51
2024/03/24 04:44:17;;;;;;;11.82;8.82;;;3.80;99.90;;;;;;4976700;28;20091;-49
2024/03/24 04:46:46;;;;;;;9.88;6.57;;;3.80;99.90;;;;;;5003893;28;20033;-53
2024/03/24 04:49:12;;;;;;;14.85;8.13;;;3.80;99.90;;;;;;4973568;28;20026;-50
2024/03/24 04:51:39;;;;;;;11.30;7.40;;;3.80;99.90;;;;;;4982489;28;20035;-52
2024/03/24 04:54:06;;;;;;;15.15;9.00;;;3.80;99.90;;;;;;4973619;28;20478;-53
2024/03/24 04:56:33;;;;;;;12.23;8.70;;;3.80;99.90;;;;;;4974066;28;20425;-51
2024/03/24 04:58:59;;;;;;;10.43;8.18;;;3.70;99.90;;;;;;4985359;28;20026;-52
2024/03/24 05:01:26;;;;;;;13.85;9.00;;;3.80;99.90;;;;;;4987427;28;21165;-52
2024/03/24 05:03:52;;;;;;;11.60;9.27;;;3.80;99.90;;;;;;5011408;28;20033;-50
2024/03/24 05:06:19;;;;;;;12.63;9.68;;;3.80;99.90;;;;;;5007493;28;20513;-51
2024/03/24 05:08:47;;;;;;;13.05;9.00;;;3.80;99.90;;;;;;5003747;28;20033;-51
2024/03/24 05:11:12;;;;;;;11.90;9.48;;;3.80;99.90;;;;;;5001223;28;20021;-51
2024/03/24 05:13:41;;;;;;;12.52;9.48;;;3.80;99.90;;;;;;5023687;28;20497;-47
2024/03/24 05:16:10;;;;;;;15.90;9.40;;;3.80;99.90;;;;;;5012271;28;20037;-53
2024/03/24 05:18:37;;;;;;;13.73;10.23;;;3.70;99.90;;;;;;5004008;28;20118;-50
2024/03/24 05:21:06;;;;;;;11.60;10.32;;;3.80;99.90;;;;;;5015378;28;20041;-49
2024/03/24 05:23:33;;;;;;;13.32;9.43;;;3.80;99.90;;;;;;4995981;28;20104;-51
2024/03/24 05:25:59;;;;;;;13.70;9.93;;;3.80;99.90;;;;;;5019882;28;20029;-50
2024/03/24 05:28:25;;;;;;;13.70;9.98;;;3.80;99.90;;;;;;4995707;28;22050;-53
2024/03/24 05:30:52;;;;;;;13.95;9.77;;;3.70;99.90;;;;;;5007704;28;20037;-48
2024/03/24 05:33:19;;;;;;;14.52;9.88;;;3.80;99.90;;;;;;5020363;28;20113;-51
2024/03/24 05:35:45;;;;;;;14.30;10.13;;;3.80;99.90;;;;;;4994115;28;20029;-51
2024/03/24 05:38:11;;;;;;;13.43;8.98;;;3.80;99.90;;;;;;4998187;28;20026;-52
2024/03/24 05:40:39;;;;;;;12.95;9.45;;;3.80;99.90;;;;;;4999715;28;20041;-50
2024/03/24 05:43:05;;;;;;;11.90;9.30;;;3.80;99.90;;;;;;5007267;28;20114;-51
2024/03/24 05:45:34;;;;;;;13.77;10.00;;;3.90;99.90;;;;;;5010188;28;20606;-55
2024/03/24 05:48:01;;;;;;;16.85;9.70;;;3.90;99.90;;;;;;4988993;28;20046;-52
2024/03/24 05:50:27;;;;;;;10.20;8.60;;;3.80;99.90;;;;;;4992606;28;20026;-51
2024/03/24 05:52:53;;;;;;;15.35;9.57;;;3.90;99.90;;;;;;5011087;28;20052;-48
2024/03/24 05:55:19;;;;;;;12.52;9.27;;;3.90;99.90;;;;;;4999117;28;20069;-49
2024/03/24 05:57:45;;;;;;;12.05;8.25;;;3.80;99.90;;;;;;5015034;28;20021;-50
2024/03/24 06:00:11;;;;;;;10.25;8.60;;;3.90;99.90;;;;;;5006154;28;20029;-50
2024/03/24 06:02:37;;;;;;;10.98;9.40;;;3.90;99.90;;;;;;4959341;28;20516;-52
2024/03/24 06:05:11;;;;;;;17.15;9.95;;;3.90;99.90;;;;;;4970020;28;20040;-60
2024/03/24 06:07:37;;;;;;;12.02;8.75;;;3.90;99.90;;;;;;4972546;28;20041;-51
2024/03/24 06:10:03;;;;;;;10.90;8.65;;;3.90;99.90;;;;;;4960827;28;20029;-50
2024/03/24 06:12:35;;;;;;;10.93;8.50;;;4.00;99.90;;;;;;4986990;28;20037;-51
2024/03/24 06:15:01;;;;;;;9.77;8.80;;;4.00;99.90;;;;;;4994227;28;20413;-49
2024/03/24 06:20:50;;;;;;;10.52;8.68;;;4.00;99.90;;;;;;4949858;28;20095;-49
2024/03/24 06:23:18;;;;;;;9.48;8.45;;;4.00;99.90;;;;;;4949710;28;20033;-50
2024/03/24 06:25:44;;;;;;;10.68;7.50;;;4.00;99.90;;;;;;4984424;28;20021;-50
2024/03/24 06:28:10;;;;;;;10.00;7.88;;;4.00;99.90;;;;;;4955109;28;20053;-53
2024/03/24 06:30:38;;;;;;;10.82;7.80;;;4.00;99.90;;;;;;4957282;28;20036;-58
2024/03/24 06:33:05;;;;;;;11.32;7.80;;;4.00;99.90;;;;;;4988932;28;20082;-50
2024/03/24 06:35:32;;;;;;;10.57;7.40;;;4.00;99.90;;;;;;4955447;28;20027;-50
2024/03/24 06:37:58;;;;;;;11.07;7.82;;;4.00;99.90;;;;;;4988281;28;20217;-51
2024/03/24 06:40:25;;;;;;;9.45;7.95;;;4.00;99.90;;;;;;4947709;28;20033;-50
2024/03/24 06:43:02;;;;;;;10.38;8.38;;;4.10;99.90;;;;;;4948209;28;22593;-53
2024/03/24 06:45:40;;;;;;;11.05;8.20;;;4.20;99.90;;;;;;4991263;28;20029;-51
2024/03/24 06:48:12;;;;;;;10.85;7.93;;;4.20;99.90;;;;;;4981172;28;20429;-48
2024/03/24 06:50:42;;;;;;;9.85;7.53;;;4.20;99.90;;;;;;4947820;28;20129;-52
2024/03/24 06:53:13;;;;;;;8.52;7.43;;;4.20;99.90;;;;;;4967498;28;20053;-59
2024/03/24 06:55:39;;;;;;;7.88;6.70;;;4.20;99.90;;;;;;4982511;28;20025;-49
2024/03/24 06:58:05;;;;;;;9.70;6.97;;;4.30;99.90;;;;;;4944398;28;20060;-51
2024/03/24 07:00:37;;;;;;;8.77;7.07;;;4.30;99.90;;;;;;4983827;28;20112;-59
2024/03/24 07:03:04;;;;;;;7.78;6.80;;;4.30;99.90;;;;;;4997285;28;20037;-49
2024/03/24 07:05:29;;;;;;;8.45;6.30;;;4.30;99.90;;;;;;4949397;28;20117;-51
2024/03/24 07:07:55;;;;;;;7.50;6.32;;;4.40;99.90;;;;;;4983321;28;20116;-53
2024/03/24 07:10:21;;;;;;;7.65;6.32;;;4.40;99.90;;;;;;4944349;28;20033;-50
2024/03/24 07:12:47;;;;;;;8.05;6.35;;;4.40;99.90;;;;;;4999155;28;20108;-50
2024/03/24 07:15:13;;;;;;;6.40;5.80;;;4.40;99.90;;;;;;5008067;28;20018;-51
2024/03/24 07:17:38;;;;;;;8.30;6.22;;;4.40;99.90;;;;;;5000705;28;20026;-51
2024/03/24 07:20:04;;;;;;;6.95;5.90;;;4.50;99.90;;;;;;5003173;28;20049;-58
2024/03/24 07:22:30;;;;;;;6.80;6.05;;;4.50;99.90;;;;;;5004256;28;20042;-53
2024/03/24 07:24:57;;;;;;;7.30;5.70;;;4.50;99.90;;;;;;5002233;28;21520;-53
2024/03/24 07:27:23;;;;;;;5.70;5.10;;;4.60;99.90;;;;;;5011735;28;20029;-51
2024/03/24 07:29:49;;;;;;;6.20;5.55;;;4.60;99.90;;;;;;5000641;28;20091;-51
2024/03/24 07:32:18;;;;;;;5.85;5.22;;;4.70;99.90;;;;;;5003271;28;20592;-53
2024/03/24 07:34:44;;;;;;;6.85;4.78;;;4.70;99.90;;;;;;5009313;28;20022;-53
2024/03/24 07:37:10;;;;;;;5.32;4.32;;;4.70;99.90;;;;;;4997515;28;20022;-51
2024/03/24 07:39:37;;;;;;;6.93;5.50;;;4.80;99.90;;;;;;5002836;28;20029;-54
2024/03/24 07:42:02;;;;;;;5.70;5.10;;;4.70;99.90;;;;;;5010582;28;20025;-51
2024/03/24 07:44:28;;;;;;;4.57;4.13;;;4.80;99.90;;;;;;4997375;28;21288;-55
2024/03/24 07:46:54;;;;;;;6.22;5.15;;;4.80;99.90;;;;;;5012126;28;20124;-50
2024/03/24 07:49:20;;;;;;;5.28;4.78;;;4.80;99.90;;;;;;4996157;28;20132;-48
2024/03/24 07:51:45;;;;;;;6.30;5.43;;;4.80;99.90;;;;;;4999256;28;20029;-53
2024/03/24 07:54:11;;;;;;;6.93;5.65;;;4.90;99.90;;;;;;5012326;28;20560;-50
2024/03/24 07:56:37;;;;;;;7.28;5.97;;;4.90;99.90;;;;;;5001552;28;20029;-52
2024/03/24 07:59:02;;;;;;;9.10;6.47;;;4.90;99.90;;;;;;5009365;28;20057;-54
2024/03/24 08:01:29;;;;;;;9.70;7.07;;;4.90;99.90;;;;;;5004511;28;20041;-49
2024/03/24 08:03:54;;;;;;;8.15;7.05;;;4.90;99.90;;;;;;4997410;28;21266;-51
2024/03/24 08:06:20;;;;;;;8.70;7.22;;;5.00;99.90;;;;;;5015996;28;20043;-52
2024/03/24 08:08:46;;;;;;;7.90;6.68;;;5.00;99.90;;;;;;5000001;28;20528;-53
2024/03/24 08:11:12;;;;;;;11.98;6.85;;;5.10;99.90;;;;;;4999207;28;20099;-52
2024/03/24 08:13:38;;;;;;;9.18;7.50;;;5.20;99.90;;;;;;5010548;28;20030;-48
2024/03/24 08:16:04;;;;;;;7.53;6.40;;;5.30;99.90;;;;;;4993050;28;20105;-52
2024/03/24 08:18:34;;;;;;;10.18;7.70;;;5.40;99.90;;;;;;5012260;28;20029;-58
2024/03/24 08:20:59;;;;;;;7.45;6.28;;;5.40;99.90;;;;;;5003165;28;20048;-48
2024/03/24 08:23:25;;;;;;;8.55;6.53;;;5.50;99.90;;;;;;4996309;28;21383;-53
2024/03/24 08:25:51;;;;;;;7.75;6.05;;;5.50;99.90;;;;;;5013825;28;20095;-49
2024/03/24 08:28:19;;;;;;;8.23;6.43;;;5.60;99.90;;;;;;4995868;28;20052;-52
2024/03/24 08:30:45;;;;;;;8.50;5.78;;;5.60;99.90;;;;;;4995583;28;20464;-51
2024/03/24 08:33:11;;;;;;;8.48;6.25;;;5.60;99.90;;;;;;5011361;28;20448;-50
2024/03/24 08:35:37;;;;;;;8.18;6.32;;;5.60;99.90;;;;;;4997047;28;20021;-49
2024/03/24 08:38:05;;;;;;;8.68;6.32;;;5.60;99.90;;;;;;5006913;28;20037;-55
2024/03/24 08:40:31;;;;;;;9.38;6.93;;;5.70;99.90;;;;;;5012900;28;20021;-52
2024/03/24 08:42:57;;;;;;;9.48;6.40;;;5.70;99.90;;;;;;4999402;28;20044;-49
2024/03/24 08:45:23;;;;;;;8.57;6.05;;;5.70;99.90;;;;;;5011794;28;20033;-49
2024/03/24 08:47:49;;;;;;;6.78;5.90;;;5.70;99.90;;;;;;4999038;28;20033;-51
2024/03/24 08:50:15;;;;;;;6.95;5.53;;;5.80;99.90;;;;;;4995483;28;20076;-49
2024/03/24 08:52:40;;;;;;;7.78;5.53;;;5.90;99.90;;;;;;5010264;28;20044;-51
2024/03/24 08:55:07;;;;;;;6.85;5.25;;;5.90;99.90;;;;;;4994045;28;20104;-49
2024/03/24 08:57:33;;;;;;;10.50;5.00;;;6.00;99.90;;;;;;5002269;28;20545;-58
2024/03/24 08:59:59;;;;;;;6.80;4.55;;;6.10;99.90;;;;;;4998323;28;20030;-49
2024/03/24 09:02:24;;;;;;;7.97;4.68;;;6.10;99.90;;;;;;4991477;28;20622;-49
2024/03/24 09:04:53;;;;;;;5.65;4.68;;;6.30;99.90;;;;;;5009376;28;20057;-52
2024/03/24 09:07:22;;;;;;;4.90;4.10;;;6.40;99.90;;;;;;4993887;28;20044;-49
2024/03/24 09:09:49;;;;;;;5.80;4.10;;;6.40;99.90;;;;;;4990803;28;20027;-52
2024/03/24 09:12:15;;;;;;;5.15;4.47;;;6.60;99.90;;;;;;5007897;28;20025;-49
2024/03/24 09:14:42;;;;;;;6.43;3.38;;;6.60;99.90;;;;;;4989110;28;20030;-50
2024/03/24 09:17:08;;;;;;;3.15;2.72;;;6.50;99.90;;;;;;4995577;28;20025;-58
2024/03/24 09:19:34;;;;;;;3.80;2.80;;;6.50;99.90;;;;;;5005232;28;20433;-51
2024/03/24 09:21:59;;;;;;;4.78;3.38;;;6.50;99.90;;;;;;4988649;28;21715;-50
2024/03/24 09:24:25;;;;;;;5.40;3.83;;;6.50;99.90;;;;;;5009102;28;20029;-50
2024/03/24 09:26:54;;;;;;;3.45;3.10;;;6.50;99.90;;;;;;4989478;28;20041;-53
2024/03/24 09:29:20;;;;;;;4.25;2.72;;;6.60;99.90;;;;;;4988203;28;21405;-51
2024/03/24 09:31:45;;;;;;;3.75;2.30;;;6.60;99.90;;;;;;5007503;28;20036;-48
2024/03/24 09:34:11;;;;;;;2.88;2.42;;;6.70;99.90;;;;;;4989127;28;20025;-52
2024/03/24 09:36:37;;;;;;;9.40;2.58;;;6.60;99.90;;;;;;4994961;28;20104;-57
2024/03/24 09:39:03;;;;;;;3.70;2.55;;;6.60;99.90;;;;;;5000446;28;20080;-50
2024/03/24 09:41:29;;;;;;;3.22;2.22;;;6.60;99.90;;;;;;4987974;28;20038;-55
2024/03/24 09:43:55;;;;;;;2.58;2.38;;;6.60;99.90;;;;;;5005430;28;20025;-53
2024/03/24 09:46:21;;;;;;;2.60;1.77;;;6.60;99.90;;;;;;4984959;28;20064;-53
2024/03/24 09:48:52;;;;;;;4.53;2.33;;;6.60;99.90;;;;;;4988687;28;20096;-53
2024/03/24 09:51:23;;;;;;;5.28;1.88;;;6.60;99.90;;;;;;5004298;28;20021;-51
2024/03/24 09:53:49;;;;;;;2.33;2.13;;;6.60;99.90;;;;;;4988380;28;20026;-49
2024/03/24 09:56:20;;;;;;;3.08;1.88;;;6.60;99.90;;;;;;4984041;28;20021;-52
2024/03/24 09:58:46;;;;;;;4.20;2.20;;;6.60;99.90;;;;;;5007220;28;20103;-50
2024/03/24 10:01:12;;;;;;;4.90;2.33;;;6.60;99.90;;;;;;4985497;28;20501;-54
2024/03/24 10:03:47;;;;;;;2.28;2.08;;;6.70;99.90;;;;;;4994192;28;20025;-53
2024/03/24 10:06:16;;;;;;;3.30;2.20;;;6.80;99.90;;;;;;5007215;28;20041;-50
2024/03/24 10:08:41;;;;;;;3.35;1.77;;;6.90;99.90;;;;;;4987501;28;20023;-52
2024/03/24 10:11:23;;;;;;;2.05;1.85;;;7.00;99.90;;;;;;4994554;28;20445;-58
2024/03/24 10:13:49;;;;;;;1.67;1.40;;;7.10;99.90;;;;;;5004936;28;20415;-53
2024/03/24 10:16:14;;;;;;;2.03;1.75;;;7.30;99.90;;;;;;4982763;28;20033;-52
2024/03/24 10:18:40;;;;;;;2.20;1.35;;;7.30;99.90;;;;;;5003769;28;20029;-52
2024/03/24 10:21:12;;;;;;;1.50;1.40;;;7.30;99.90;;;;;;5003393;28;20117;-54
2024/03/24 10:23:45;;;;;;;2.53;1.83;;;7.30;99.90;;;;;;5025873;28;20116;-50
2024/03/24 10:26:23;;;;;;;2.00;1.80;;;7.40;99.90;;;;;;5007036;28;20030;-58
2024/03/24 10:28:50;;;;;;;2.58;1.30;;;7.50;99.90;;;;;;5019300;28;20025;-53
2024/03/24 10:31:16;;;;;;;1.80;1.30;;;7.50;99.90;;;;;;5014752;28;20087;-53
2024/03/24 10:33:44;;;;;;;1.98;1.20;;;7.40;99.90;;;;;;5015743;28;20025;-51
2024/03/24 10:36:10;;;;;;;1.85;1.15;;;7.40;99.90;;;;;;5006193;28;20026;-51
2024/03/24 10:38:36;;;;;;;2.95;1.40;;;7.50;99.90;;;;;;5009160;28;20547;-52
2024/03/24 10:41:04;;;;;;;1.98;1.00;;;7.60;99.90;;;;;;5022621;28;20084;-53
2024/03/24 10:43:31;;;;;;;3.53;1.00;;;7.70;99.90;;;;;;5009043;28;20063;-52
2024/03/24 10:45:57;;;;;;;1.20;0.98;;;7.90;99.90;;;;;;5020528;28;20533;-49
2024/03/24 10:48:31;;;;;;;0.68;0.55;;;8.00;99.90;;;;;;5021754;28;20409;-52
2024/03/24 10:50:58;;;;;;;1.38;0.57;;;8.10;99.90;;;;;;5021482;28;20036;-48
2024/03/24 10:53:29;;;;;;;4.38;0.80;;;8.10;99.90;;;;;;5001214;28;20035;-51
2024/03/24 10:56:01;;;;;;;1.83;0.73;;;8.00;99.90;;;;;;5014658;28;20052;-53
2024/03/24 10:58:27;;;;;;;6.65;1.13;;;8.00;99.90;;;;;;5017203;28;20037;-52
2024/03/24 11:00:53;;;;;;;1.85;0.70;;;8.00;99.90;;;;;;5016965;28;20095;-54
2024/03/24 11:03:21;;;;;;;1.65;0.70;;;8.10;99.90;;;;;;5017808;28;20056;-52
2024/03/24 11:05:48;;;;;;;1.33;0.55;;;8.20;99.90;;;;;;5021440;28;20029;-55
2024/03/24 11:08:15;;;;;;;1.75;0.88;;;8.30;99.90;;;;;;5011938;28;20398;-51
2024/03/24 11:10:48;;;;;;;1.30;0.63;;;8.40;99.90;;;;;;5017134;28;20029;-52
2024/03/24 11:13:27;;;;;;;3.00;0.60;;;8.60;99.90;;;;;;5011771;28;20053;-51
2024/03/24 11:15:52;;;;;;;3.22;1.17;;;8.60;99.90;;;;;;4998600;28;20120;-49
2024/03/24 11:18:25;;;;;;;1.38;0.80;;;8.50;99.90;;;;;;4997178;28;20113;-52
2024/03/24 11:21:05;;;;;;;2.50;1.50;;;8.40;99.90;;;;;;5014305;28;20050;-51
2024/03/24 11:23:36;;;;;;;2.00;0.82;;;8.40;99.90;;;;;;5002851;28;21176;-52
2024/03/24 11:26:03;;;;;;;1.88;1.10;;;8.50;99.90;;;;;;5013026;28;20468;-49
2024/03/24 11:28:42;;;;;;;1.30;0.90;;;8.50;99.90;;;;;;5017713;28;20405;-52
2024/03/24 11:31:20;;;;;;;2.63;1.20;;;8.60;99.90;;;;;;5015747;28;20056;-51
2024/03/24 11:34:03;;;;;;;1.25;1.05;;;8.70;99.90;;;;;;5002013;28;20035;-51
2024/03/24 11:36:32;;;;;;;4.63;1.27;;;8.70;99.90;;;;;;4999738;28;20108;-50
2024/03/24 11:39:00;;;;;;;2.75;1.40;;;8.80;99.90;;;;;;5002133;28;20036;-53
2024/03/24 11:41:25;;;;;;;2.15;1.40;;;8.70;99.90;;;;;;5005339;28;21382;-50
2024/03/24 11:44:04;;;;;;;2.95;2.13;;;8.60;99.90;;;;;;5016107;28;20029;-52
2024/03/24 11:46:31;;;;;;;3.42;2.20;;;8.50;99.90;;;;;;5005487;28;20026;-49
2024/03/24 11:48:58;;;;;;;3.20;2.35;;;8.50;99.90;;;;;;5026032;28;20494;-50
2024/03/24 11:51:25;;;;;;;3.50;2.63;;;8.50;99.90;;;;;;5013743;28;20698;-49
2024/03/24 11:53:54;;;;;;;4.88;3.47;;;8.60;99.90;;;;;;5003121;28;20075;-49
2024/03/24 11:56:21;;;;;;;3.75;3.35;;;8.70;99.90;;;;;;5013393;28;20092;-48
2024/03/24 11:58:52;;;;;;;6.00;3.47;;;8.80;99.90;;;;;;5015158;28;20026;-50
2024/03/24 12:01:18;;;;;;;4.82;2.92;;;8.80;99.90;;;;;;5015271;28;20033;-51
2024/03/24 12:03:44;;;;;;;8.68;4.43;;;8.80;99.90;;;;;;5011416;28;20091;-48
2024/03/24 12:06:14;;;;;;;7.60;5.43;;;8.70;99.90;;;;;;4996026;28;20038;-49
2024/03/24 12:08:42;;;;;;;9.45;4.97;;;8.50;99.90;;;;;;4999450;28;20036;-51
2024/03/24 12:11:09;;;;;;;23.67;12.52;;;8.40;99.90;;;;;;5008938;28;20051;-52
2024/03/24 12:13:36;;;;;;;35.88;17.27;;;8.20;99.90;;;;;;5010851;28;20113;-54
2024/03/24 12:16:02;;;;;;;19.25;10.82;;;8.20;99.90;;;;;;5013840;28;20032;-52
2024/03/24 12:18:28;;;;;;;12.07;8.57;;;8.20;99.90;;;;;;4994392;28;20071;-50
2024/03/24 12:20:53;;;;;;;6.25;4.45;;;8.10;99.90;;;;;;5016542;28;20045;-50
2024/03/24 12:23:20;;;;;;;5.35;4.22;;;8.00;99.90;;;;;;4974028;28;20108;-58
2024/03/24 12:25:49;;;;;;;5.60;3.83;;;8.00;99.90;;;;;;5014555;28;20092;-50
2024/03/24 12:28:16;;;;;;;5.32;3.05;;;8.00;99.90;;;;;;5003952;28;20521;-52
2024/03/24 12:30:49;;;;;;;4.95;2.80;;;8.10;99.90;;;;;;4992403;28;20049;-51
2024/03/24 12:33:16;;;;;;;5.18;2.95;;;8.20;99.90;;;;;;4989063;28;20497;-51
2024/03/24 12:35:42;;;;;;;4.00;3.28;;;8.30;99.90;;;;;;4998410;28;20087;-49
2024/03/24 12:38:10;;;;;;;4.10;2.92;;;8.40;99.90;;;;;;5005911;28;20108;-59
2024/03/24 12:40:35;;;;;;;4.68;2.88;;;8.60;99.90;;;;;;5007506;28;20027;-53
2024/03/24 12:43:13;;;;;;;3.95;2.53;;;8.60;99.90;;;;;;5013847;28;20034;-50
2024/03/24 12:45:51;;;;;;;2.38;1.92;;;8.60;99.90;;;;;;5009430;28;20026;-54
2024/03/24 12:48:17;;;;;;;5.10;1.95;;;8.50;99.90;;;;;;5008755;28;20025;-55
2024/03/24 12:50:43;;;;;;;2.70;1.67;;;8.40;99.90;;;;;;5018510;28;20025;-50
2024/03/24 12:53:21;;;;;;;3.28;1.70;;;8.30;99.90;;;;;;5011575;28;20026;-52
2024/03/24 12:55:48;;;;;;;1.92;1.67;;;8.20;99.90;;;;;;5009839;28;20046;-54
2024/03/24 12:58:14;;;;;;;1.13;1.08;;;8.10;99.90;;;;;;5019468;28;20033;-49
2024/03/24 13:00:44;;;;;;;1.65;1.20;;;7.90;99.90;;;;;;5004613;28;20034;-52
2024/03/24 13:03:12;;;;;;;1.50;1.40;;;7.80;99.90;;;;;;5010835;28;20042;-52